Portada
METAR-TAF:

METAR-TAF

Aeroports :

La Paz, Mèxic

latitud: 24-04N, longitud: 110-22W, altitud: 21 m

Observació

L'informe es va fer fa 5 hores i 40 minuts, a les 05:54 UTC
Vent calma
Temperatura 13°C
Humitat 72%
Pressió 1020 hPa
Visibilitat: 16.1 km
Cel clar

METAR: MMLP 050554Z 00000KT 10SM SKC 13/08 A3013

Hora: 04:34 (11:34 UTC)

Pronòstic

L'informe es va fer fa 6 hores i 19 minuts, a les 05:15 UTC
Pronòstic vàlid del 05 a les 06 UTC al 06 a les 06 UTC
Vent 5 kt del Nord/Nord-Est
Visibilitat: 10 km
Cel clar
A partir de les 05 a les 1800 UTC
Vent 10 kt del Nord
Visibilitat: 10 km
Cel clar
Evolucionant progressivament
l' 06 a les 00 UTC al 06 a les 01 UTC
Vent 5 kt del Oest

TAF: MMLP 050515Z 0506/0606 03005KT P6SM SKC FM051800 36010KT P6SM SKC BECMG 0600/0601 27005KT

Observacions i pronòstics meteorològics de més de 4000 aeroports (METAR i TAF).

Les estacions disponibles són els punts grocs i vermells al mapa.

Posi el ratolí al punt desitjat per veure el nom de l'estació.

Feu clic per veure les observacions i els pronòstics meteorològics.

Per canviar el mapa: feu clic els botons verds amb una creu de color negre per apropar; al botó verd amb un guió per allunyar la imatge; o en les fletxes verdes per a mapes adjacents.


METAR-TAF: